Terminal Aerodrome Forecast
Issued by NWS

Home | Current Version | Previous Version | Text Only | Print | Product List | Glossary On
Versions: 1 2 3 4 5 6 7 8 9 10 11 12 13 14 15 16
000
FTUS44 KOUN 290520
TAFPNC
TAF
KPNC 290520Z 2906/3006 06012KT P6SM SCT050 BKN220
      TEMPO 2910/2914 3SM -TSRA BR OVC025CB
     FM291400 08014G20KT 6SM -TSRA BR OVC015CB
     FM292000 13015G22KT P6SM OVC025
      TEMPO 3000/3004 2SM TSRA BR OVC015CB
     FM300400 34013KT 2SM TSRA BR OVC025CB=

USA.gov is the U.S. government's official web portal to all federal, state and local government web resources and services.